Time;durP1;ratioP1;P1;durP2;ratioP2;P2;SDS_P1;SDS_P2;PMS_P1;PMS_P2;Temp;Humidity;BMP_temperature;BMP_pressure;BME280_temperature;BME280_humidity;BME280_pressure;Samples;Min_cycle;Max_cycle;Signal;HPM_P1;HPM_P2
2023/11/15 00:00:06;;;;;;;2.43;0.70;;;;;;;10.31;100.00;99452.19;5055560;28;20447;-71
2023/11/15 00:02:33;;;;;;;1.87;0.43;;;;;;;10.27;100.00;99456.66;5055148;28;20516;-72
2023/11/15 00:05:00;;;;;;;1.90;0.47;;;;;;;10.24;100.00;99460.00;5055764;28;20553;-72
2023/11/15 00:07:26;;;;;;;2.43;0.70;;;;;;;10.21;100.00;99463.34;5055047;28;20533;-72
2023/11/15 00:09:53;;;;;;;2.00;0.50;;;;;;;10.24;100.00;99456.50;5055422;28;20523;-72
2023/11/15 00:12:20;;;;;;;1.80;0.40;;;;;;;10.22;100.00;99459.50;5055336;28;20446;-71
2023/11/15 00:14:47;;;;;;;2.13;0.50;;;;;;;10.25;100.00;99458.88;5055085;28;20485;-71
2023/11/15 00:17:15;;;;;;;1.90;0.40;;;;;;;10.22;100.00;99461.41;5054842;28;20954;-71
2023/11/15 00:19:45;;;;;;;2.07;0.50;;;;;;;10.24;100.00;99461.91;5055176;28;20442;-72
2023/11/15 00:22:14;;;;;;;1.97;0.43;;;;;;;10.23;100.00;99471.16;5055240;28;20438;-72
2023/11/15 00:24:41;;;;;;;1.80;0.40;;;;;;;10.19;100.00;99464.78;5055487;28;20455;-72
2023/11/15 00:27:09;;;;;;;2.10;0.60;;;;;;;10.18;100.00;99457.78;5055087;28;20434;-72
2023/11/15 00:29:36;;;;;;;1.90;0.50;;;;;;;10.19;100.00;99464.78;5055320;28;20444;-72
2023/11/15 00:32:02;;;;;;;2.00;0.47;;;;;;;10.17;100.00;99473.22;5055080;28;20473;-72
2023/11/15 00:34:31;;;;;;;2.07;0.53;;;;;;;10.20;100.00;99471.78;5054603;28;20513;-72
2023/11/15 00:36:57;;;;;;;2.07;0.60;;;;;;;10.21;100.00;99476.88;5055263;28;20466;-72
2023/11/15 00:39:24;;;;;;;1.90;0.47;;;;;;;10.20;100.00;99469.09;5054680;28;20474;-72
2023/11/15 00:41:51;;;;;;;1.90;0.40;;;;;;;10.18;100.00;99477.53;5054841;28;20439;-72
2023/11/15 00:44:17;;;;;;;2.30;0.63;;;;;;;10.19;100.00;99479.13;5055290;28;20458;-72
2023/11/15 00:46:44;;;;;;;2.73;0.63;;;;;;;10.24;100.00;99487.06;5054776;28;20931;-71
2023/11/15 00:49:11;;;;;;;2.43;0.67;;;;;;;10.22;100.00;99491.97;5054730;28;20906;-71
2023/11/15 00:51:39;;;;;;;2.13;0.43;;;;;;;10.19;100.00;99495.34;5054799;28;20800;-71
2023/11/15 00:54:07;;;;;;;2.10;0.53;;;;;;;10.21;100.00;99495.81;5054592;28;20561;-71
2023/11/15 00:56:33;;;;;;;1.80;0.40;;;;;;;10.21;100.00;99501.22;5054397;28;20537;-70
2023/11/15 00:59:00;;;;;;;1.90;0.50;;;;;;;10.21;100.00;99495.81;5055242;28;20438;-71
2023/11/15 01:01:27;;;;;;;1.97;0.50;;;;;;;10.22;100.00;99502.81;5068619;22;20965;-67
2023/11/15 01:03:56;;;;;;;2.10;0.70;;;;;;;10.22;100.00;99516.31;5054101;28;20527;-67
2023/11/15 01:06:24;;;;;;;1.90;0.53;;;;;;;10.23;100.00;99509.81;5054690;28;20481;-67
2023/11/15 01:08:52;;;;;;;2.10;0.50;;;;;;;10.21;100.00;99514.75;5054531;28;20478;-67
2023/11/15 01:11:18;;;;;;;2.20;0.50;;;;;;;10.22;100.00;99512.84;5054003;28;20932;-68
2023/11/15 01:13:45;;;;;;;2.00;0.60;;;;;;;10.23;100.00;99522.56;5053814;28;20490;-68
2023/11/15 01:16:12;;;;;;;2.30;0.70;;;;;;;10.22;100.00;99519.03;5054334;28;20204;-68
2023/11/15 01:18:39;;;;;;;1.90;0.50;;;;;;;10.18;100.00;99517.31;5053533;28;20969;-68
2023/11/15 01:21:08;;;;;;;1.97;0.50;;;;;;;10.19;100.00;99510.78;5053824;28;20442;-68
2023/11/15 01:23:35;;;;;;;1.87;0.50;;;;;;;10.18;100.00;99517.31;5054001;28;20451;-68
2023/11/15 01:26:05;;;;;;;1.90;0.50;;;;;;;10.17;100.00;99521.94;5054177;28;20441;-68
2023/11/15 01:28:32;;;;;;;2.10;0.80;;;;;;;10.13;100.00;99531.81;5054283;28;20492;-68
2023/11/15 01:30:58;;;;;;;2.10;0.70;;;;;;;10.17;100.00;99530.03;5054321;28;20489;-68
2023/11/15 01:33:26;;;;;;;2.43;0.70;;;;;;;10.17;100.00;99535.44;5053711;28;20496;-67
2023/11/15 01:35:53;;;;;;;3.03;0.70;;;;;;;10.18;100.00;99533.53;5053910;28;20812;-67
2023/11/15 01:38:19;;;;;;;1.90;0.50;;;;;;;10.15;100.00;99529.59;5053779;28;20460;-68
2023/11/15 01:40:48;;;;;;;2.33;0.60;;;;;;;10.19;100.00;99535.94;5053815;28;20464;-68
2023/11/15 01:43:16;;;;;;;1.87;0.40;;;;;;;10.23;100.00;99539.59;5053729;28;20460;-68
2023/11/15 01:45:43;;;;;;;2.10;0.60;;;;;;;10.18;100.00;99536.25;5053353;28;20815;-68
2023/11/15 01:48:10;;;;;;;2.40;0.73;;;;;;;10.19;100.00;99535.16;5053609;28;20521;-68
2023/11/15 01:50:37;;;;;;;2.33;0.70;;;;;;;10.19;100.00;99544.06;5053789;28;20524;-68
2023/11/15 01:53:03;;;;;;;2.00;0.50;;;;;;;10.19;100.00;99549.47;5053147;28;20482;-68
2023/11/15 01:55:31;;;;;;;2.23;0.63;;;;;;;10.24;100.00;99554.72;5053893;28;20496;-68
2023/11/15 01:57:59;;;;;;;1.97;0.53;;;;;;;10.23;100.00;99561.25;5053565;28;20438;-68
2023/11/15 02:00:27;;;;;;;2.60;0.93;;;;;;;10.22;100.00;99556.91;5053265;28;20474;-68
2023/11/15 02:02:54;;;;;;;2.63;1.10;;;;;;;10.19;100.00;99552.19;5053277;28;20493;-68
2023/11/15 02:05:21;;;;;;;2.20;0.63;;;;;;;10.19;100.00;99554.09;5053820;28;20443;-67
2023/11/15 02:07:48;;;;;;;2.30;0.67;;;;;;;10.22;100.00;99562.34;5053124;28;20994;-68
2023/11/15 02:10:15;;;;;;;1.90;0.50;;;;;;;10.26;100.00;99568.72;5053396;28;20934;-68
2023/11/15 02:12:42;;;;;;;2.00;0.50;;;;;;;10.27;100.00;99564.91;5053380;28;20446;-68
2023/11/15 02:15:09;;;;;;;2.50;0.80;;;;;;;10.24;100.00;99579.09;5053035;28;20486;-68
2023/11/15 02:17:37;;;;;;;2.60;1.00;;;;;;;10.24;100.00;99573.69;5053329;28;20473;-68
2023/11/15 02:20:08;;;;;;;3.07;1.20;;;;;;;10.28;100.00;99582.75;5053018;28;20520;-68
2023/11/15 02:22:43;;;;;;;2.27;0.60;;;;;;;10.27;100.00;99588.47;5053383;28;20423;-68
2023/11/15 02:25:11;;;;;;;3.60;0.80;;;;;;;10.31;100.00;99592.09;5053186;28;20487;-67
2023/11/15 02:27:38;;;;;;;2.00;0.50;;;;;;;10.30;100.00;99593.22;5053248;28;20472;-68
2023/11/15 02:30:08;;;;;;;1.87;0.40;;;;;;;10.24;100.00;99598.03;5053236;28;20529;-67
2023/11/15 02:32:37;;;;;;;2.00;0.60;;;;;;;10.23;100.00;99601.03;5055789;28;20458;-67
2023/11/15 02:35:03;;;;;;;2.13;0.67;;;;;;;10.26;100.00;99601.19;5057448;28;20823;-67
2023/11/15 02:37:30;;;;;;;2.93;1.00;;;;;;;10.24;100.00;99606.16;5057151;28;20496;-67
2023/11/15 02:39:57;;;;;;;2.60;0.80;;;;;;;10.19;100.00;99606.31;5057217;28;20442;-67
2023/11/15 02:42:26;;;;;;;3.70;0.90;;;;;;;10.18;100.00;99606.59;5057434;28;20449;-68
2023/11/15 02:44:52;;;;;;;2.30;0.80;;;;;;;10.15;100.00;99609.97;5057173;28;20551;-68
2023/11/15 02:47:19;;;;;;;2.63;0.73;;;;;;;10.14;100.00;99616.47;5057183;28;20438;-68
2023/11/15 02:49:47;;;;;;;2.03;0.57;;;;;;;10.15;100.00;99618.88;5056990;28;20438;-68
2023/11/15 02:52:14;;;;;;;2.10;0.70;;;;;;;10.17;100.00;99618.56;5056590;28;20866;-68
2023/11/15 02:54:40;;;;;;;2.30;0.80;;;;;;;10.15;100.00;99627.00;5056464;28;20485;-68
2023/11/15 02:57:07;;;;;;;2.80;0.83;;;;;;;10.19;100.00;99632.56;5057190;28;20440;-69
2023/11/15 02:59:35;;;;;;;4.07;1.30;;;;;;;10.21;100.00;99628.41;5057190;28;20450;-68
2023/11/15 03:02:02;;;;;;;2.03;0.73;;;;;;;10.26;100.00;99635.59;5056517;28;20497;-68
2023/11/15 03:04:28;;;;;;;2.10;0.70;;;;;;;10.21;100.00;99647.34;5056861;28;20459;-68
2023/11/15 03:06:55;;;;;;;2.57;0.67;;;;;;;10.16;100.00;99650.22;5056427;28;20998;-68
2023/11/15 03:09:21;;;;;;;2.50;0.73;;;;;;;10.15;100.00;99678.41;5056673;28;20528;-68
2023/11/15 03:11:48;;;;;;;2.90;0.60;;;;;;;10.12;100.00;99673.63;5056704;28;20492;-68
2023/11/15 03:14:15;;;;;;;2.50;0.73;;;;;;;10.12;100.00;99673.63;5056380;28;20579;-68
2023/11/15 03:16:45;;;;;;;2.63;0.70;;;;;;;10.10;100.00;99689.41;5056542;28;20651;-68
2023/11/15 03:19:12;;;;;;;3.17;1.63;;;;;;;10.01;100.00;99685.91;5056151;28;20879;-68
2023/11/15 03:21:39;;;;;;;1.90;0.50;;;;;;;9.95;100.00;99689.88;5056364;28;20447;-68
2023/11/15 03:24:07;;;;;;;2.20;0.63;;;;;;;9.87;100.00;99696.88;5056557;28;20485;-68
2023/11/15 03:26:35;;;;;;;3.50;1.00;;;;;;;9.81;100.00;99693.53;5055981;28;20866;-68
2023/11/15 03:29:02;;;;;;;2.10;0.50;;;;;;;9.78;100.00;99704.19;5056861;28;20447;-68
2023/11/15 03:31:29;;;;;;;3.03;0.70;;;;;;;9.70;100.00;99702.28;5056103;28;20434;-68
2023/11/15 03:33:58;;;;;;;2.60;0.83;;;;;;;9.66;100.00;99702.13;5056173;28;20494;-68
2023/11/15 03:36:25;;;;;;;1.93;0.50;;;;;;;9.67;100.00;99705.63;5055864;28;20930;-68
2023/11/15 03:38:51;;;;;;;2.30;0.77;;;;;;;9.63;100.00;99716.25;5055906;28;20434;-68
2023/11/15 03:41:18;;;;;;;4.47;0.87;;;;;;;9.56;100.00;99714.03;5056051;28;20466;-68
2023/11/15 03:43:45;;;;;;;2.63;0.83;;;;;;;9.53;100.00;99727.38;5055266;28;20470;-68
2023/11/15 03:46:11;;;;;;;1.90;0.40;;;;;;;9.55;100.00;99725.16;5056009;28;20470;-68
2023/11/15 03:48:38;;;;;;;1.90;0.50;;;;;;;9.50;100.00;99728.00;5055931;28;20871;-68
2023/11/15 03:51:07;;;;;;;3.43;0.77;;;;;;;9.44;100.00;99730.06;5056211;28;20543;-68
2023/11/15 03:53:33;;;;;;;2.73;0.60;;;;;;;9.47;100.00;99732.13;5056104;28;20458;-68
2023/11/15 03:56:00;;;;;;;1.97;0.53;;;;;;;9.47;100.00;99742.16;5055754;28;20690;-68
2023/11/15 03:58:27;;;;;;;1.87;0.40;;;;;;;9.51;100.00;99740.41;5056027;28;20445;-68
2023/11/15 04:00:56;;;;;;;2.40;0.60;;;;;;;9.45;100.00;99745.16;5055696;28;20478;-68
2023/11/15 04:03:23;;;;;;;1.80;0.30;;;;;;;9.42;100.00;99759.31;5055354;28;20474;-68
2023/11/15 04:05:49;;;;;;;1.90;0.40;;;;;;;9.37;100.00;99758.66;5055972;28;20525;-68
2023/11/15 04:08:18;;;;;;;2.00;0.50;;;;;;;9.31;100.00;99766.91;5055332;28;20461;-68
2023/11/15 04:10:45;;;;;;;1.80;0.40;;;;;;;9.27;100.00;99773.25;5055965;28;20445;-68
2023/11/15 04:13:12;;;;;;;1.90;0.40;;;;;;;9.20;100.00;99783.72;5055288;28;20441;-68
2023/11/15 04:15:38;;;;;;;2.10;0.60;;;;;;;9.13;100.00;99786.06;5055552;28;20518;-68
2023/11/15 04:18:05;;;;;;;1.90;0.50;;;;;;;9.15;100.00;99790.03;5055020;28;20992;-68
2023/11/15 04:20:32;;;;;;;1.90;0.50;;;;;;;9.16;100.00;99796.25;5054987;28;20529;-68
2023/11/15 04:22:59;;;;;;;1.90;0.50;;;;;;;9.11;100.00;99807.97;5055492;28;20438;-68
2023/11/15 04:25:27;;;;;;;2.00;0.47;;;;;;;9.11;100.00;99816.09;5055230;28;20929;-68
2023/11/15 04:27:53;;;;;;;1.90;0.40;;;;;;;9.12;100.00;99819.56;5055485;28;20525;-68
2023/11/15 04:30:20;;;;;;;1.93;0.50;;;;;;;9.11;100.00;99821.47;5055143;28;20946;-68
2023/11/15 04:32:47;;;;;;;1.90;0.40;;;;;;;9.12;100.00;99823.09;5055547;28;20533;-68
2023/11/15 04:35:14;;;;;;;2.00;0.40;;;;;;;9.02;100.00;99834.16;5054918;28;20486;-67
2023/11/15 04:37:41;;;;;;;2.10;0.50;;;;;;;8.88;100.00;99844.22;5054945;28;20478;-68
2023/11/15 04:40:09;;;;;;;1.90;0.40;;;;;;;8.82;100.00;99844.38;5054976;28;21042;-67
2023/11/15 04:42:37;;;;;;;1.90;0.50;;;;;;;8.79;100.00;99852.28;5055138;28;20458;-67
2023/11/15 04:45:05;;;;;;;2.50;0.77;;;;;;;8.79;100.00;99863.88;5054752;28;20458;-67
2023/11/15 04:47:32;;;;;;;2.57;0.70;;;;;;;8.72;100.00;99870.78;5054732;28;20537;-65
2023/11/15 04:49:58;;;;;;;2.00;0.50;;;;;;;8.61;100.00;99872.16;5054782;28;20805;-68
2023/11/15 04:52:25;;;;;;;1.93;0.37;;;;;;;8.55;100.00;99866.06;5054679;28;20441;-68
2023/11/15 04:54:54;;;;;;;1.90;0.40;;;;;;;8.49;100.00;99872.69;5053595;28;20486;-69
2023/11/15 04:57:24;;;;;;;2.57;0.53;;;;;;;8.49;100.00;99880.78;5054464;28;20451;-69
2023/11/15 04:59:55;;;;;;;1.87;0.37;;;;;;;8.44;100.00;99886.28;5054554;28;20541;-69
2023/11/15 05:02:22;;;;;;;1.90;0.40;;;;;;;8.40;100.00;99893.41;5054607;28;20454;-69
2023/11/15 05:04:48;;;;;;;2.33;0.70;;;;;;;8.31;100.00;99899.47;5054104;28;20828;-69
2023/11/15 05:07:15;;;;;;;1.90;0.40;;;;;;;8.21;100.00;99897.00;5054621;28;20446;-69
2023/11/15 05:09:42;;;;;;;1.90;0.40;;;;;;;8.24;100.00;99904.50;5054536;28;20442;-69
2023/11/15 05:12:09;;;;;;;2.00;0.60;;;;;;;8.28;100.00;99905.50;5054281;28;20515;-69
2023/11/15 05:14:37;;;;;;;1.80;0.40;;;;;;;8.22;100.00;99920.16;5054442;28;20486;-68
2023/11/15 05:17:05;;;;;;;1.90;0.50;;;;;;;8.22;100.00;99924.75;5054571;28;20434;-68
2023/11/15 05:19:32;;;;;;;2.30;0.83;;;;;;;8.23;100.00;99924.47;5054157;28;20824;-68
2023/11/15 05:21:58;;;;;;;2.00;0.50;;;;;;;8.16;100.00;99920.59;5054256;28;20519;-67
2023/11/15 05:24:25;;;;;;;2.53;0.60;;;;;;;8.19;100.00;99934.28;5054173;28;20552;-68
2023/11/15 05:26:52;;;;;;;2.20;0.60;;;;;;;8.16;100.00;99936.78;5054231;28;20525;-67
2023/11/15 05:29:19;;;;;;;2.37;0.70;;;;;;;8.08;100.00;99936.38;5054414;28;20775;-67
2023/11/15 05:31:45;;;;;;;3.03;0.83;;;;;;;8.11;100.00;99950.38;5053966;28;20473;-67
2023/11/15 05:34:13;;;;;;;2.40;0.60;;;;;;;8.01;100.00;99948.63;5053602;28;20512;-67
2023/11/15 05:36:40;;;;;;;2.00;0.57;;;;;;;8.01;100.00;99946.78;5053627;28;20487;-67
2023/11/15 05:39:06;;;;;;;2.17;0.50;;;;;;;7.99;100.00;99953.56;5053259;28;20801;-67
2023/11/15 05:41:35;;;;;;;2.00;0.40;;;;;;;7.96;100.00;99959.53;5053678;28;20438;-67
2023/11/15 05:44:02;;;;;;;1.90;0.40;;;;;;;8.02;100.00;99953.75;5053455;28;20566;-67
2023/11/15 05:46:28;;;;;;;1.90;0.40;;;;;;;7.92;100.00;99966.63;5053468;28;20432;-67
2023/11/15 05:48:56;;;;;;;2.07;0.50;;;;;;;7.97;100.00;99974.59;5053398;28;20442;-67
2023/11/15 05:51:25;;;;;;;2.10;0.77;;;;;;;7.95;100.00;99979.50;5053218;28;20532;-67
2023/11/15 05:53:52;;;;;;;2.23;0.57;;;;;;;7.97;100.00;99985.41;5053371;28;20501;-67
2023/11/15 05:56:19;;;;;;;1.80;0.30;;;;;;;7.97;100.00;99985.41;5053305;28;20513;-67
2023/11/15 05:58:46;;;;;;;2.00;0.40;;;;;;;7.97;100.00;99991.63;5053680;28;20529;-67
2023/11/15 06:01:13;;;;;;;2.50;0.77;;;;;;;7.99;100.00;100007.47;5052962;28;20794;-67
2023/11/15 06:03:39;;;;;;;2.10;0.53;;;;;;;8.01;100.00;100010.66;5053089;28;20502;-67
2023/11/15 06:06:07;;;;;;;2.00;0.50;;;;;;;8.05;100.00;100014.38;5053125;28;20521;-66
2023/11/15 06:08:35;;;;;;;1.87;0.40;;;;;;;8.03;100.00;100019.28;5053086;28;20442;-66
2023/11/15 06:11:01;;;;;;;2.00;0.40;;;;;;;7.92;100.00;100024.03;5053018;28;20478;-67
2023/11/15 06:13:28;;;;;;;2.43;0.60;;;;;;;7.92;100.00;100025.94;5052940;28;20546;-67
2023/11/15 06:15:55;;;;;;;1.87;0.47;;;;;;;7.95;100.00;100033.44;5052945;28;20485;-67
2023/11/15 06:18:22;;;;;;;2.13;0.67;;;;;;;7.89;100.00;100038.13;5053307;28;20440;-66
2023/11/15 06:20:49;;;;;;;2.00;0.63;;;;;;;7.84;100.00;100038.22;5053347;28;20457;-67
2023/11/15 06:23:16;;;;;;;2.37;0.90;;;;;;;7.84;100.00;100051.72;5053215;28;20849;-67
2023/11/15 06:25:44;;;;;;;2.20;0.70;;;;;;;7.87;100.00;100050.31;5052922;28;20438;-67
2023/11/15 06:28:11;;;;;;;2.57;0.90;;;;;;;7.82;100.00;100065.47;5053258;28;20500;-67
2023/11/15 06:30:37;;;;;;;2.47;0.70;;;;;;;7.78;100.00;100059.06;5053315;28;20444;-67
2023/11/15 06:33:05;;;;;;;2.50;0.60;;;;;;;7.81;100.00;100055.78;5053187;28;20470;-67
2023/11/15 06:35:31;;;;;;;2.00;0.70;;;;;;;7.80;100.00;100081.16;5052854;28;20523;-67
2023/11/15 06:38:01;;;;;;;1.90;0.40;;;;;;;7.80;100.00;100069.56;5053201;28;20526;-66
2023/11/15 06:40:27;;;;;;;2.70;0.80;;;;;;;7.81;100.00;100076.56;5053287;28;20489;-66
2023/11/15 06:42:56;;;;;;;2.00;0.60;;;;;;;7.77;100.00;100083.63;5052870;28;20497;-66
2023/11/15 06:45:23;;;;;;;2.10;0.73;;;;;;;7.77;100.00;100087.13;5053065;28;20439;-66
2023/11/15 06:47:51;;;;;;;2.90;1.00;;;;;;;7.79;100.00;100092.22;5052789;28;20438;-66
2023/11/15 06:50:18;;;;;;;3.27;0.93;;;;;;;7.79;100.00;100101.13;5053498;28;20446;-66
2023/11/15 06:52:45;;;;;;;4.10;1.40;;;;;;;7.81;100.00;100104.31;5053058;28;20495;-66
2023/11/15 06:55:12;;;;;;;2.20;0.83;;;;;;;7.89;100.00;100108.25;5052864;28;20496;-66
2023/11/15 06:57:40;;;;;;;1.90;0.40;;;;;;;7.90;100.00;100117.13;5053019;28;20430;-66
2023/11/15 07:00:11;;;;;;;2.37;0.90;;;;;;;7.98;100.00;100121.84;5052722;28;20442;-66
2023/11/15 07:02:37;;;;;;;2.00;0.63;;;;;;;7.95;100.00;100117.03;5066934;22;20502;-70
2023/11/15 07:05:06;;;;;;;2.93;0.77;;;;;;;7.94;100.00;100129.72;5053497;28;20565;-70
2023/11/15 07:07:33;;;;;;;2.27;0.70;;;;;;;7.93;100.00;100127.34;5053734;28;20941;-69
2023/11/15 07:10:00;;;;;;;2.30;0.80;;;;;;;7.96;100.00;100132.91;5053394;28;20533;-69
2023/11/15 07:12:29;;;;;;;2.53;0.73;;;;;;;7.94;100.00;100139.72;5053342;28;20541;-68
2023/11/15 07:14:57;;;;;;;2.47;0.70;;;;;;;7.98;100.00;100152.31;5052771;28;20810;-68
2023/11/15 07:17:25;;;;;;;2.27;0.77;;;;;;;8.01;100.00;100159.84;5053707;28;20449;-69
2023/11/15 07:19:51;;;;;;;3.50;1.10;;;;;;;8.03;100.00;100162.22;5056716;28;20545;-70
2023/11/15 07:22:18;;;;;;;1.90;0.50;;;;;;;8.05;100.00;100166.22;5056556;28;20449;-70
2023/11/15 07:24:45;;;;;;;3.40;0.90;;;;;;;8.09;100.00;100169.13;5056636;28;20470;-69
2023/11/15 07:27:12;;;;;;;3.00;0.97;;;;;;;8.08;100.00;100167.53;5056694;28;20438;-69
2023/11/15 07:29:39;;;;;;;2.07;0.50;;;;;;;8.12;100.00;100176.63;5056457;28;20525;-69
2023/11/15 07:32:07;;;;;;;2.20;0.73;;;;;;;8.16;100.00;100184.94;5056412;28;20477;-69
2023/11/15 07:34:35;;;;;;;1.97;0.50;;;;;;;8.09;100.00;100190.69;5055918;28;20496;-69
2023/11/15 07:37:02;;;;;;;2.40;0.90;;;;;;;8.16;100.00;100196.53;5057005;28;20525;-69
2023/11/15 07:39:29;;;;;;;2.33;0.87;;;;;;;8.19;100.00;100195.97;5056785;28;20438;-69
2023/11/15 07:41:56;;;;;;;2.77;0.97;;;;;;;8.19;100.00;100204.06;5055856;28;20922;-69
2023/11/15 07:44:25;;;;;;;1.97;0.50;;;;;;;8.26;100.00;100209.84;5055917;28;20545;-69
2023/11/15 07:46:54;;;;;;;2.30;0.90;;;;;;;8.33;100.00;100226.47;5055834;28;20438;-73
2023/11/15 07:49:23;;;;;;;4.80;1.20;;;;;;;8.28;100.00;100223.88;5056162;28;20520;-68
2023/11/15 07:51:52;;;;;;;2.97;0.70;;;;;;;8.32;100.00;100227.59;5056047;28;20497;-69
2023/11/15 07:54:19;;;;;;;2.40;0.77;;;;;;;8.40;100.00;100234.22;5055788;28;20485;-69
2023/11/15 07:56:46;;;;;;;2.30;0.77;;;;;;;8.40;100.00;100244.22;5055415;28;20493;-68
2023/11/15 07:59:13;;;;;;;4.07;0.87;;;;;;;8.41;100.00;100243.09;5055771;28;20894;-68
2023/11/15 08:01:41;;;;;;;2.00;0.60;;;;;;;8.36;100.00;100249.34;5055288;28;20494;-67
2023/11/15 08:04:07;;;;;;;1.90;0.40;;;;;;;8.37;100.00;100263.69;5055920;28;20459;-67
2023/11/15 08:06:36;;;;;;;2.10;0.60;;;;;;;8.31;100.00;100262.94;5055714;28;20446;-67
2023/11/15 08:09:04;;;;;;;2.20;0.73;;;;;;;8.35;100.00;100255.84;5055698;28;20438;-68
2023/11/15 08:11:34;;;;;;;3.07;1.20;;;;;;;8.38;100.00;100276.91;5055555;28;20446;-68
2023/11/15 08:14:02;;;;;;;2.67;0.90;;;;;;;8.41;100.00;100270.09;5055211;28;20549;-68
2023/11/15 08:16:30;;;;;;;2.73;1.13;;;;;;;8.42;100.00;100269.81;5055445;28;20612;-68
2023/11/15 08:18:57;;;;;;;2.60;1.10;;;;;;;8.44;100.00;100283.00;5055143;28;20496;-67
2023/11/15 08:21:23;;;;;;;2.47;0.90;;;;;;;8.47;100.00;100277.03;5055336;28;20435;-67
2023/11/15 08:23:50;;;;;;;3.87;1.03;;;;;;;8.45;100.00;100280.00;5055333;28;20850;-67
2023/11/15 08:26:21;;;;;;;2.10;0.70;;;;;;;8.45;100.00;100296.19;5055588;28;20445;-68
2023/11/15 08:28:47;;;;;;;3.77;1.23;;;;;;;8.43;100.00;100308.41;5054865;28;20928;-67
2023/11/15 08:31:15;;;;;;;3.10;1.00;;;;;;;8.40;100.00;100312.47;5055227;28;20440;-67
2023/11/15 08:33:44;;;;;;;2.47;0.90;;;;;;;8.35;100.00;100316.03;5055018;28;20629;-67
2023/11/15 08:36:12;;;;;;;2.90;1.10;;;;;;;8.38;100.00;100321.97;5055090;28;20477;-68
2023/11/15 08:38:38;;;;;;;2.77;1.00;;;;;;;8.40;100.00;100320.56;5055014;28;20448;-68
2023/11/15 08:41:06;;;;;;;2.60;1.20;;;;;;;8.39;100.00;100332.47;5054957;28;20438;-68
2023/11/15 08:43:34;;;;;;;2.53;0.93;;;;;;;8.49;100.00;100328.81;5054580;28;20482;-68
2023/11/15 08:46:01;;;;;;;3.07;1.20;;;;;;;8.53;100.00;100335.22;5054791;28;20435;-68
2023/11/15 08:48:27;;;;;;;3.20;1.10;;;;;;;8.53;100.00;100343.34;5054889;28;20791;-68
2023/11/15 08:50:54;;;;;;;2.73;0.70;;;;;;;8.56;100.00;100350.84;5054692;28;20477;-68
2023/11/15 08:53:25;;;;;;;3.17;1.20;;;;;;;8.54;100.00;100347.63;5054836;28;20557;-67
2023/11/15 08:55:51;;;;;;;3.17;1.00;;;;;;;8.58;100.00;100354.03;5054533;28;20573;-67
2023/11/15 08:58:18;;;;;;;2.07;0.60;;;;;;;8.61;100.00;100361.56;5054710;28;20461;-67
2023/11/15 09:00:49;;;;;;;3.33;1.20;;;;;;;8.56;100.00;100369.75;5054142;28;20961;-67
2023/11/15 09:03:16;;;;;;;2.70;1.00;;;;;;;8.66;100.00;100372.28;5054098;28;20474;-67
2023/11/15 09:05:44;;;;;;;3.07;0.97;;;;;;;8.65;100.00;100369.88;5054514;28;20434;-67
2023/11/15 09:08:11;;;;;;;3.37;1.20;;;;;;;8.65;100.00;100375.28;5054533;28;20883;-67
2023/11/15 09:10:37;;;;;;;3.73;1.00;;;;;;;8.73;100.00;100383.53;5054421;28;20492;-67
2023/11/15 09:13:08;;;;;;;2.43;0.83;;;;;;;8.72;100.00;100387.34;5054146;28;20440;-67
2023/11/15 09:15:34;;;;;;;3.07;0.67;;;;;;;8.72;100.00;100387.34;5054403;28;20946;-67
2023/11/15 09:18:06;;;;;;;2.60;1.10;;;;;;;8.69;100.00;100387.91;5053945;28;20449;-67
2023/11/15 09:20:34;;;;;;;4.40;1.40;;;;;;;8.74;100.00;100387.81;5053890;28;20431;-69
2023/11/15 09:23:02;;;;;;;2.93;1.27;;;;;;;8.79;100.00;100401.25;5053848;28;20449;-71
2023/11/15 09:25:31;;;;;;;2.57;0.90;;;;;;;8.80;100.00;100402.84;5054145;28;20442;-68
2023/11/15 09:28:00;;;;;;;2.63;0.70;;;;;;;8.87;100.00;100399.78;5054058;28;20439;-68
2023/11/15 09:30:30;;;;;;;2.50;0.83;;;;;;;8.91;100.00;100405.41;5054044;28;20860;-68
2023/11/15 09:32:57;;;;;;;3.33;1.00;;;;;;;8.89;100.00;100405.69;5053865;28;20520;-68
2023/11/15 09:35:27;;;;;;;2.67;0.87;;;;;;;8.92;100.00;100413.22;5053950;28;20446;-68
2023/11/15 09:37:57;;;;;;;4.33;1.63;;;;;;;9.04;100.00;100421.66;5054121;28;20411;-68
2023/11/15 09:40:24;;;;;;;2.50;0.80;;;;;;;9.05;100.00;100417.88;5053382;28;20533;-68
2023/11/15 09:42:54;;;;;;;3.60;1.20;;;;;;;9.02;100.00;100423.84;5053574;28;20492;-68
2023/11/15 09:45:23;;;;;;;3.50;1.57;;;;;;;9.04;100.00;100428.97;5053648;28;20462;-68
2023/11/15 09:47:51;;;;;;;2.97;1.00;;;;;;;9.07;100.00;100431.06;5053777;28;20438;-68
2023/11/15 09:50:21;;;;;;;4.27;1.03;;;;;;;9.03;100.00;100438.16;5053654;28;20488;-68
2023/11/15 09:52:50;;;;;;;2.37;0.77;;;;;;;9.00;100.00;100444.97;5053406;28;20422;-68
2023/11/15 09:55:18;;;;;;;3.03;1.33;;;;;;;8.99;100.00;100434.47;5053329;28;20541;-68
2023/11/15 09:57:46;;;;;;;3.23;1.30;;;;;;;8.97;100.00;100448.25;5053188;28;20854;-68
2023/11/15 10:00:16;;;;;;;3.57;1.50;;;;;;;8.94;100.00;100442.63;5053393;28;20896;-68
2023/11/15 10:02:43;;;;;;;4.83;1.47;;;;;;;8.94;100.00;100448.03;5053257;28;20450;-68
2023/11/15 10:05:18;;;;;;;2.60;0.90;;;;;;;8.91;100.00;100445.94;5053483;28;20454;-68
2023/11/15 10:07:47;;;;;;;2.40;0.70;;;;;;;8.96;100.00;100448.56;5053972;28;20450;-68
2023/11/15 10:10:19;;;;;;;2.87;0.83;;;;;;;8.97;100.00;100450.16;5053785;28;20450;-68
2023/11/15 10:12:48;;;;;;;2.60;0.90;;;;;;;9.04;100.00;100458.69;5053502;28;20422;-68
2023/11/15 10:15:18;;;;;;;2.10;0.70;;;;;;;9.02;100.00;100450.88;5053228;28;20470;-68
2023/11/15 10:17:46;;;;;;;2.33;0.80;;;;;;;8.88;100.00;100449.22;5053410;28;20486;-68
2023/11/15 10:20:25;;;;;;;2.10;0.63;;;;;;;8.84;100.00;100454.38;5053657;28;20983;-68
2023/11/15 10:22:53;;;;;;;2.80;0.80;;;;;;;8.83;100.00;100456.28;5053170;28;20422;-68
2023/11/15 10:25:21;;;;;;;2.63;0.90;;;;;;;8.82;100.00;100457.38;5053530;28;20556;-68
2023/11/15 10:27:50;;;;;;;3.50;0.97;;;;;;;8.74;100.00;100463.44;5053305;28;20522;-68
2023/11/15 10:30:22;;;;;;;2.50;0.80;;;;;;;8.76;100.00;100465.84;5053449;28;20442;-68
2023/11/15 10:32:51;;;;;;;2.30;0.83;;;;;;;8.76;100.00;100463.13;5053371;28;20798;-68
2023/11/15 10:35:27;;;;;;;2.67;0.90;;;;;;;8.70;100.00;100472.41;5053264;28;20458;-68
2023/11/15 10:37:54;;;;;;;2.30;0.77;;;;;;;8.71;100.00;100492.91;5053470;28;20478;-68
2023/11/15 10:40:25;;;;;;;2.00;0.60;;;;;;;8.69;100.00;100490.50;5053460;28;20521;-68
2023/11/15 10:42:53;;;;;;;1.97;0.47;;;;;;;8.66;100.00;100488.38;5053259;28;20433;-68
2023/11/15 10:45:23;;;;;;;1.93;0.50;;;;;;;8.63;100.00;100488.97;5053089;28;20463;-68
2023/11/15 10:47:56;;;;;;;1.90;0.47;;;;;;;8.62;100.00;100492.75;5053295;28;20434;-68
2023/11/15 10:50:23;;;;;;;2.70;0.87;;;;;;;8.61;100.00;100496.56;5053126;28;20427;-68
2023/11/15 10:52:50;;;;;;;3.23;0.70;;;;;;;8.53;100.00;100494.50;5054570;28;20491;-68
2023/11/15 10:55:18;;;;;;;1.80;0.40;;;;;;;8.49;100.00;100498.88;5056927;28;20545;-68
2023/11/15 10:57:47;;;;;;;2.23;0.77;;;;;;;8.49;100.00;100496.16;5057125;28;20489;-68
2023/11/15 11:00:17;;;;;;;2.60;1.00;;;;;;;8.48;100.00;100506.16;5056857;28;20897;-68
2023/11/15 11:02:45;;;;;;;2.20;0.60;;;;;;;8.52;100.00;100501.00;5056847;28;20810;-68
2023/11/15 11:05:16;;;;;;;2.20;0.60;;;;;;;8.58;100.00;100507.94;5056282;28;20584;-68
2023/11/15 11:07:49;;;;;;;1.83;0.40;;;;;;;8.63;100.00;100515.97;5056749;28;20916;-68
2023/11/15 11:10:24;;;;;;;2.07;0.53;;;;;;;8.66;100.00;100511.88;5056732;28;20484;-68
2023/11/15 11:12:56;;;;;;;2.07;0.63;;;;;;;8.67;100.00;100522.38;5056816;28;20452;-68
2023/11/15 11:15:26;;;;;;;2.33;0.77;;;;;;;8.68;100.00;100528.63;5056192;28;20429;-68
2023/11/15 11:18:03;;;;;;;2.10;0.67;;;;;;;8.76;100.00;100531.44;5056536;28;20557;-68
2023/11/15 11:20:35;;;;;;;1.90;0.47;;;;;;;8.74;100.00;100530.94;5056548;28;20509;-68
2023/11/15 11:23:16;;;;;;;2.60;0.93;;;;;;;8.76;100.00;100534.16;5056827;28;20426;-68
2023/11/15 11:25:46;;;;;;;1.90;0.40;;;;;;;8.75;100.00;100540.66;5056789;28;20426;-68
2023/11/15 11:28:15;;;;;;;2.03;0.67;;;;;;;8.78;100.00;100548.19;5056465;28;20496;-68